Time;durP1;ratioP1;P1;durP2;ratioP2;P2;SDS_P1;SDS_P2;PMS_P1;PMS_P2;Temp;Humidity;BMP_temperature;BMP_pressure;BME280_temperature;BME280_humidity;BME280_pressure;Samples;Min_cycle;Max_cycle;Signal;HPM_P1;HPM_P2
2021/04/17 00:01:19;;;;;;;;;;;-2.00;96.60;;;;;;5018992;28;20318;-69
2021/04/17 00:03:45;;;;;;;;;;;-2.10;96.50;;;;;;5023514;28;20239;-69
2021/04/17 00:06:10;;;;;;;;;;;-2.10;96.70;;;;;;5034477;28;20234;-69
2021/04/17 00:08:39;;;;;;;;;;;-2.20;96.40;;;;;;5024725;28;19928;-68
2021/04/17 00:11:06;;;;;;;;;;;-2.10;96.10;;;;;;5016786;28;19944;-69
2021/04/17 00:13:31;;;;;;;;;;;-2.00;96.40;;;;;;5030687;28;20003;-69
2021/04/17 00:15:57;;;;;;;;;;;-2.00;96.40;;;;;;5030805;28;19923;-69
2021/04/17 00:18:22;;;;;;;;;;;-2.00;96.40;;;;;;5029130;28;19948;-70
2021/04/17 00:20:48;;;;;;;;;;;-2.00;96.40;;;;;;5025219;28;19917;-69
2021/04/17 00:23:15;;;;;;;;;;;-2.00;96.20;;;;;;5015256;28;19923;-68
2021/04/17 00:25:40;;;;;;;;;;;-2.00;96.30;;;;;;5032788;28;19919;-68
2021/04/17 00:28:06;;;;;;;;;;;-1.90;96.40;;;;;;5036975;28;20019;-68
2021/04/17 00:30:32;;;;;;;;;;;-1.90;96.50;;;;;;5037840;28;19913;-68
2021/04/17 00:32:57;;;;;;;;;;;-2.00;96.70;;;;;;5036024;28;19913;-68
2021/04/17 00:35:23;;;;;;;;;;;-2.00;96.30;;;;;;5036072;28;20499;-69
2021/04/17 00:37:48;;;;;;;;;;;-2.10;96.30;;;;;;5021020;28;19921;-69
2021/04/17 00:40:14;;;;;;;;;;;-2.00;96.40;;;;;;5038365;28;20219;-68
2021/04/17 00:42:39;;;;;;;;;;;-2.00;96.40;;;;;;5038437;28;19917;-69
2021/04/17 00:45:05;;;;;;;;;;;-2.00;96.40;;;;;;5023581;28;19922;-69
2021/04/17 00:47:31;;;;;;;;;;;-2.00;96.30;;;;;;5035498;28;19925;-68
2021/04/17 00:49:57;;;;;;;;;;;-1.90;96.50;;;;;;5037082;28;20019;-70
2021/04/17 00:52:22;;;;;;;;;;;-1.90;96.30;;;;;;5024801;28;19918;-69
2021/04/17 00:54:48;;;;;;;;;;;-1.90;96.60;;;;;;5033575;28;19913;-69
2021/04/17 00:57:14;;;;;;;;;;;-1.90;96.30;;;;;;5038205;28;20234;-69
2021/04/17 00:59:39;;;;;;;;;;;-1.90;96.30;;;;;;5030331;28;19921;-68
2021/04/17 01:02:05;;;;;;;;;;;-1.90;96.70;;;;;;5035471;28;19913;-68
2021/04/17 01:04:35;;;;;;;;;;;-2.00;96.70;;;;;;5032740;28;20314;-69
2021/04/17 01:07:03;;;;;;;;;;;-2.00;96.60;;;;;;5037007;28;20036;-68
2021/04/17 01:09:32;;;;;;;;;;;-2.00;96.60;;;;;;5033721;28;19920;-69
2021/04/17 01:12:00;;;;;;;;;;;-2.10;96.50;;;;;;5026745;28;20368;-69
2021/04/17 01:14:27;;;;;;;;;;;-2.10;96.70;;;;;;5036787;28;19917;-69
2021/04/17 01:16:53;;;;;;;;;;;-2.10;96.40;;;;;;5035879;28;20016;-69
2021/04/17 01:19:24;;;;;;;;;;;-2.00;96.20;;;;;;5031405;28;20008;-68
2021/04/17 01:21:50;;;;;;;;;;;-2.00;96.70;;;;;;5023384;28;19925;-68
2021/04/17 01:24:17;;;;;;;;;;;-2.10;96.50;;;;;;5021409;28;20219;-69
2021/04/17 01:26:43;;;;;;;;;;;-2.10;96.80;;;;;;5036357;28;19920;-70
2021/04/17 01:29:12;;;;;;;;;;;-2.20;96.50;;;;;;5034260;28;19921;-70
2021/04/17 01:31:41;;;;;;;;;;;-2.20;96.70;;;;;;5032594;28;20284;-68
2021/04/17 01:34:08;;;;;;;;;;;-2.30;96.50;;;;;;5036067;28;19951;-67
2021/04/17 01:36:36;;;;;;;;;;;-2.20;96.50;;;;;;5036762;28;19916;-67
2021/04/17 01:39:05;;;;;;;;;;;-2.20;96.80;;;;;;5030878;28;19920;-69
2021/04/17 01:41:36;;;;;;;;;;;-2.30;96.50;;;;;;5026702;28;20306;-68
2021/04/17 01:44:04;;;;;;;;;;;-2.30;96.50;;;;;;5024316;28;19921;-68
2021/04/17 01:46:32;;;;;;;;;;;-2.20;96.60;;;;;;5035446;28;19974;-69
2021/04/17 01:48:59;;;;;;;;;;;-2.20;96.50;;;;;;5035062;28;20304;-69
2021/04/17 01:51:25;;;;;;;;;;;-2.20;96.30;;;;;;5030274;28;20021;-69
2021/04/17 01:53:52;;;;;;;;;;;-2.20;96.60;;;;;;5022744;28;20024;-67
2021/04/17 01:56:19;;;;;;;;;;;-2.10;96.60;;;;;;5036814;28;19956;-68
2021/04/17 01:58:45;;;;;;;;;;;-2.10;96.50;;;;;;5032902;28;20269;-68
2021/04/17 02:01:10;;;;;;;;;;;-2.10;96.50;;;;;;5027015;28;19917;-69
2021/04/17 02:03:36;;;;;;;;;;;-2.00;96.50;;;;;;5035824;28;20295;-67
2021/04/17 02:06:02;;;;;;;;;;;-2.00;96.70;;;;;;5025337;28;20324;-67
2021/04/17 02:08:28;;;;;;;;;;;-2.10;96.90;;;;;;5032485;28;19914;-67
2021/04/17 02:10:53;;;;;;;;;;;-2.10;96.80;;;;;;5024688;28;19967;-67
2021/04/17 02:13:22;;;;;;;;;;;-2.20;96.70;;;;;;5020474;28;20302;-67
2021/04/17 02:15:48;;;;;;;;;;;-2.20;96.70;;;;;;5032088;28;19917;-69
2021/04/17 02:18:13;;;;;;;;;;;-2.20;96.80;;;;;;5029061;28;19925;-68
2021/04/17 02:20:46;;;;;;;;;;;-2.30;96.70;;;;;;5022568;28;19944;-69
2021/04/17 02:23:12;;;;;;;;;;;-2.20;96.70;;;;;;5033306;28;19971;-68
2021/04/17 02:25:38;;;;;;;;;;;-2.30;96.70;;;;;;5036172;28;19916;-69
2021/04/17 02:28:04;;;;;;;;;;;-2.30;96.70;;;;;;5027088;28;20261;-69
2021/04/17 02:30:29;;;;;;;;;;;-2.30;96.70;;;;;;5033461;28;20229;-68
2021/04/17 02:32:58;;;;;;;;;;;-2.30;96.60;;;;;;5024401;28;19919;-68
2021/04/17 02:35:24;;;;;;;;;;;-2.40;96.70;;;;;;5021985;28;19955;-68
2021/04/17 02:37:49;;;;;;;;;;;-2.40;96.70;;;;;;5028302;28;19984;-68
2021/04/17 02:40:15;;;;;;;;;;;-2.40;96.60;;;;;;5035152;28;19909;-68
2021/04/17 02:42:41;;;;;;;;;;;-2.30;96.60;;;;;;5032790;28;19932;-68
2021/04/17 02:45:06;;;;;;;;;;;-2.20;96.60;;;;;;5019688;28;19937;-68
2021/04/17 02:47:32;;;;;;;;;;;-2.20;96.80;;;;;;5027371;28;19921;-69
2021/04/17 02:49:58;;;;;;;;;;;-2.20;96.70;;;;;;5016829;28;19913;-69
2021/04/17 02:52:23;;;;;;;;;;;-2.20;96.70;;;;;;5032462;28;19920;-69
2021/04/17 02:54:49;;;;;;;;;;;-2.20;96.80;;;;;;5036167;28;20369;-69
2021/04/17 02:57:15;;;;;;;;;;;-2.20;96.90;;;;;;5035262;28;19917;-69
2021/04/17 02:59:40;;;;;;;;;;;-2.30;96.90;;;;;;5032862;28;20318;-69
2021/04/17 03:02:06;;;;;;;;;;;-2.30;96.90;;;;;;5024974;28;19914;-69
2021/04/17 03:04:31;;;;;;;;;;;-2.40;96.90;;;;;;5030629;28;19920;-69
2021/04/17 03:06:57;;;;;;;;;;;-2.40;96.90;;;;;;5027124;28;19917;-69
2021/04/17 03:09:22;;;;;;;;;;;-2.50;96.70;;;;;;5031446;28;20004;-68
2021/04/17 03:11:48;;;;;;;;;;;-2.50;96.90;;;;;;5035120;28;19913;-69
2021/04/17 03:14:14;;;;;;;;;;;-2.60;97.00;;;;;;5021576;28;19913;-69
2021/04/17 03:16:39;;;;;;;;;;;-2.70;97.00;;;;;;5020431;28;19921;-67
2021/04/17 03:19:05;;;;;;;;;;;-2.80;97.00;;;;;;5028004;28;19913;-69
2021/04/17 03:21:30;;;;;;;;;;;-2.80;96.80;;;;;;5035358;28;19917;-69
2021/04/17 03:23:56;;;;;;;;;;;-2.70;96.90;;;;;;5023769;28;19964;-69
2021/04/17 03:26:21;;;;;;;;;;;-2.70;96.90;;;;;;5021313;28;19913;-69
2021/04/17 03:28:47;;;;;;;;;;;-2.70;96.90;;;;;;5031763;28;19914;-69
2021/04/17 03:31:12;;;;;;;;;;;-2.80;97.10;;;;;;5033779;28;19913;-69
2021/04/17 03:33:38;;;;;;;;;;;-2.90;96.90;;;;;;5031011;28;19913;-69
2021/04/17 03:36:05;;;;;;;;;;;-3.00;96.90;;;;;;5029199;28;19920;-68
2021/04/17 03:38:30;;;;;;;;;;;-2.90;96.80;;;;;;5032171;28;20332;-69
2021/04/17 03:40:56;;;;;;;;;;;-2.90;96.80;;;;;;5035145;28;19913;-69
2021/04/17 03:43:21;;;;;;;;;;;-2.90;97.00;;;;;;5028758;28;20330;-68
2021/04/17 03:45:47;;;;;;;;;;;-3.00;97.00;;;;;;5034202;28;19916;-67
2021/04/17 03:48:12;;;;;;;;;;;-3.20;97.00;;;;;;5034724;28;19913;-68
2021/04/17 03:50:38;;;;;;;;;;;-3.20;97.00;;;;;;5035875;28;19909;-67
2021/04/17 03:53:04;;;;;;;;;;;-3.30;96.90;;;;;;5025433;28;20322;-69
2021/04/17 03:55:30;;;;;;;;;;;-3.30;96.90;;;;;;5035798;28;19917;-68
2021/04/17 03:57:55;;;;;;;;;;;-3.40;97.00;;;;;;5029281;28;19955;-69
2021/04/17 04:00:22;;;;;;;;;;;-3.40;96.70;;;;;;5037362;28;19959;-67
2021/04/17 04:02:47;;;;;;;;;;;-3.30;96.60;;;;;;5032840;28;19913;-68
2021/04/17 04:05:16;;;;;;;;;;;-3.30;96.90;;;;;;5039193;28;19913;-68
2021/04/17 04:07:42;;;;;;;;;;;-3.10;96.50;;;;;;5035550;28;20535;-68
2021/04/17 04:10:08;;;;;;;;;;;-3.10;96.90;;;;;;5039325;28;19920;-68
2021/04/17 04:12:33;;;;;;;;;;;-3.10;96.80;;;;;;5038575;28;19913;-68
2021/04/17 04:14:59;;;;;;;;;;;-3.00;96.40;;;;;;5039298;28;19917;-69
2021/04/17 04:17:25;;;;;;;;;;;-2.90;96.50;;;;;;5029847;28;19953;-68
2021/04/17 04:19:50;;;;;;;;;;;-2.80;96.50;;;;;;5022199;28;20008;-69
2021/04/17 04:22:16;;;;;;;;;;;-2.70;96.60;;;;;;5020560;28;19913;-68
2021/04/17 04:24:42;;;;;;;;;;;-2.60;96.50;;;;;;5037378;28;20325;-68
2021/04/17 04:27:10;;;;;;;;;;;-2.40;96.40;;;;;;5038173;28;19913;-69
2021/04/17 04:29:36;;;;;;;;;;;-2.30;96.40;;;;;;5033845;28;19913;-69
2021/04/17 04:32:02;;;;;;;;;;;-2.10;96.60;;;;;;5029223;28;19963;-69
2021/04/17 04:34:28;;;;;;;;;;;-2.00;96.60;;;;;;5031865;28;19914;-70
2021/04/17 04:36:53;;;;;;;;;;;-1.90;96.60;;;;;;5025682;28;19928;-69
2021/04/17 04:39:19;;;;;;;;;;;-1.80;96.80;;;;;;5036364;28;20241;-69
2021/04/17 04:41:44;;;;;;;;;;;-1.80;96.80;;;;;;5038290;28;20000;-68
2021/04/17 04:44:13;;;;;;;;;;;-1.80;96.60;;;;;;5038350;28;19956;-69
2021/04/17 04:46:41;;;;;;;;;;;-1.80;97.00;;;;;;5038387;28;19936;-68
2021/04/17 04:49:07;;;;;;;;;;;-1.70;96.80;;;;;;5038536;28;20004;-68
2021/04/17 04:51:32;;;;;;;;;;;-1.60;96.70;;;;;;5022613;28;19949;-69
2021/04/17 04:53:58;;;;;;;;;;;-1.50;96.80;;;;;;5036268;28;19937;-68
2021/04/17 04:56:24;;;;;;;;;;;-1.50;96.90;;;;;;5037769;28;20004;-67
2021/04/17 04:58:52;;;;;;;;;;;-1.40;96.90;;;;;;5032260;28;19968;-67
2021/04/17 05:01:19;;;;;;;;;;;-1.50;97.10;;;;;;5027616;28;20222;-67
2021/04/17 05:03:45;;;;;;;;;;;-1.50;96.90;;;;;;5031783;28;19954;-67
2021/04/17 05:06:10;;;;;;;;;;;-1.40;96.70;;;;;;5032102;28;19953;-68
2021/04/17 05:08:38;;;;;;;;;;;-1.40;96.60;;;;;;5035169;28;20331;-67
2021/04/17 05:11:04;;;;;;;;;;;-1.20;96.80;;;;;;5034728;28;19913;-69
2021/04/17 05:13:29;;;;;;;;;;;-1.10;96.90;;;;;;5036498;28;20210;-68
2021/04/17 05:15:55;;;;;;;;;;;-1.00;96.90;;;;;;5037506;28;20298;-69
2021/04/17 05:18:21;;;;;;;;;;;-0.90;96.90;;;;;;5023799;28;19928;-69
2021/04/17 05:20:46;;;;;;;;;;;-0.80;96.80;;;;;;5030164;28;19917;-69
2021/04/17 05:23:12;;;;;;;;;;;-0.70;96.90;;;;;;5031240;28;19913;-68
2021/04/17 05:25:37;;;;;;;;;;;-0.50;96.60;;;;;;5036092;28;19955;-69
2021/04/17 05:28:08;;;;;;;;;;;-0.30;97.00;;;;;;5034322;28;19913;-68
2021/04/17 05:30:36;;;;;;;;;;;-0.20;97.40;;;;;;5037702;28;19917;-68
2021/04/17 05:33:02;;;;;;;;;;;-0.20;97.20;;;;;;5031554;28;19913;-69
2021/04/17 05:35:28;;;;;;;;;;;-0.20;97.30;;;;;;5037226;28;19919;-68
2021/04/17 05:37:53;;;;;;;;;;;-0.20;97.80;;;;;;5022103;28;20011;-68
2021/04/17 05:40:19;;;;;;;;;;;-0.20;97.50;;;;;;5018190;28;19913;-68
2021/04/17 05:42:44;;;;;;;;;;;-0.20;97.50;;;;;;5025402;28;20333;-68
2021/04/17 05:45:10;;;;;;;;;;;0.00;97.30;;;;;;5036106;28;19986;-69
2021/04/17 05:47:36;;;;;;;;;;;0.10;97.60;;;;;;5036544;28;20199;-69
2021/04/17 05:50:01;;;;;;;;;;;0.30;97.20;;;;;;5036882;28;19920;-68
2021/04/17 05:52:27;;;;;;;;;;;0.50;97.40;;;;;;5035170;28;19921;-69
2021/04/17 05:54:53;;;;;;;;;;;0.60;97.50;;;;;;5032959;28;19920;-68
2021/04/17 05:57:18;;;;;;;;;;;0.70;97.60;;;;;;5036641;28;19917;-68
2021/04/17 05:59:44;;;;;;;;;;;0.80;97.40;;;;;;5036196;28;19921;-69
2021/04/17 06:02:09;;;;;;;;;;;1.00;97.70;;;;;;5034047;28;19917;-68
2021/04/17 06:04:35;;;;;;;;;;;1.20;97.30;;;;;;5037411;28;19913;-67
2021/04/17 06:07:00;;;;;;;;;;;1.50;97.60;;;;;;5035836;28;20023;-68
2021/04/17 06:09:29;;;;;;;;;;;1.70;97.70;;;;;;5036658;28;19978;-69
2021/04/17 06:11:55;;;;;;;;;;;1.90;97.50;;;;;;5032743;28;20024;-68
2021/04/17 06:14:21;;;;;;;;;;;2.20;97.50;;;;;;5037130;28;19919;-68
2021/04/17 06:16:46;;;;;;;;;;;2.30;98.00;;;;;;5042087;28;19909;-68
2021/04/17 06:19:12;;;;;;;;;;;2.40;97.80;;;;;;5040201;28;19921;-69
2021/04/17 06:21:38;;;;;;;;;;;2.40;98.00;;;;;;5030338;28;19974;-68
2021/04/17 06:24:03;;;;;;;;;;;2.50;98.00;;;;;;5029390;28;20016;-69
2021/04/17 06:26:29;;;;;;;;;;;2.70;98.00;;;;;;5024530;28;20274;-68
2021/04/17 06:28:55;;;;;;;;;;;2.50;98.00;;;;;;5036594;28;20261;-68
2021/04/17 06:31:20;;;;;;;;;;;2.50;98.00;;;;;;5037991;28;20320;-68
2021/04/17 06:33:46;;;;;;;;;;;2.70;98.00;;;;;;5043465;28;20345;-69
2021/04/17 06:36:14;;;;;;;;;;;2.80;98.00;;;;;;5036394;28;19945;-68
2021/04/17 06:38:40;;;;;;;;;;;3.00;98.00;;;;;;5030578;28;20290;-68
2021/04/17 06:41:06;;;;;;;;;;;3.00;97.80;;;;;;5036455;28;19999;-68
2021/04/17 06:43:34;;;;;;;;;;;3.00;98.00;;;;;;5036454;28;19960;-70
2021/04/17 06:46:01;;;;;;;;;;;2.90;98.00;;;;;;5048712;28;19920;-69
2021/04/17 06:48:26;;;;;;;;;;;3.00;98.00;;;;;;5035057;28;20265;-68
2021/04/17 06:50:54;;;;;;;;;;;3.00;98.00;;;;;;5034962;28;19999;-69
2021/04/17 06:53:20;;;;;;;;;;;3.00;97.60;;;;;;5030957;28;19925;-68
2021/04/17 06:55:53;;;;;;;;;;;3.10;98.00;;;;;;5027847;28;19996;-69
2021/04/17 06:58:19;;;;;;;;;;;3.40;97.90;;;;;;5035349;28;19917;-67
2021/04/17 07:00:46;;;;;;;;;;;3.50;97.50;;;;;;5034126;28;19913;-70
2021/04/17 07:03:11;;;;;;;;;;;3.70;97.80;;;;;;5035211;28;19920;-69
2021/04/17 07:05:39;;;;;;;;;;;3.70;97.60;;;;;;5034326;28;19913;-68
2021/04/17 07:08:05;;;;;;;;;;;3.40;97.00;;;;;;5034783;28;19956;-67
2021/04/17 07:10:33;;;;;;;;;;;3.20;96.90;;;;;;5033646;28;19943;-69
2021/04/17 07:13:06;;;;;;;;;;;3.20;97.40;;;;;;5031949;28;19913;-68
2021/04/17 07:15:33;;;;;;;;;;;3.10;97.00;;;;;;5034656;28;19956;-67
2021/04/17 07:17:59;;;;;;;;;;;3.20;97.80;;;;;;5028166;28;20170;-68
2021/04/17 07:20:26;;;;;;;;;;;3.20;97.10;;;;;;5022066;28;20318;-68
2021/04/17 07:22:52;;;;;;;;;;;3.30;97.40;;;;;;5033348;28;19913;-69
2021/04/17 07:25:18;;;;;;;;;;;3.30;97.30;;;;;;5025661;28;19914;-67
2021/04/17 07:27:50;;;;;;;;;;;3.30;97.10;;;;;;5032893;28;19947;-69
2021/04/17 07:30:16;;;;;;;;;;;3.20;97.20;;;;;;5029381;28;19913;-68
2021/04/17 07:32:41;;;;;;;;;;;3.20;97.20;;;;;;5033384;28;19935;-70
2021/04/17 07:35:07;;;;;;;;;;;3.50;97.60;;;;;;5035325;28;20390;-68
2021/04/17 07:37:33;;;;;;;;;;;3.80;97.20;;;;;;5034325;28;19917;-72
2021/04/17 07:40:28;;;;;;;;;;;3.90;97.00;;;;;;5031306;28;19917;-70
2021/04/17 07:42:54;;;;;;;;;;;4.10;96.30;;;;;;5017741;28;19913;-68
2021/04/17 07:45:23;;;;;;;;;;;3.90;96.00;;;;;;5035644;28;20313;-69
2021/04/17 07:47:49;;;;;;;;;;;3.70;96.80;;;;;;5032742;28;19917;-68
2021/04/17 07:50:15;;;;;;;;;;;3.70;96.70;;;;;;5026974;28;19918;-68
2021/04/17 07:52:41;;;;;;;;;;;3.80;96.60;;;;;;5030241;28;19977;-68
2021/04/17 07:55:08;;;;;;;;;;;3.80;96.20;;;;;;5034633;28;19952;-68
2021/04/17 07:57:43;;;;;;;;;;;3.70;96.20;;;;;;5029065;28;19959;-68
2021/04/17 08:00:10;;;;;;;;;;;3.60;96.60;;;;;;5034801;28;19914;-68
2021/04/17 08:02:37;;;;;;;;;;;3.80;97.00;;;;;;5035625;28;19917;-68
2021/04/17 08:05:03;;;;;;;;;;;4.20;96.80;;;;;;5035187;28;19914;-70
2021/04/17 08:07:30;;;;;;;;;;;4.40;96.10;;;;;;5033972;28;19944;-70
2021/04/17 08:09:57;;;;;;;;;;;4.60;95.60;;;;;;5034038;28;19948;-70
2021/04/17 08:12:23;;;;;;;;;;;4.90;94.70;;;;;;5034678;28;20005;-70
2021/04/17 08:14:49;;;;;;;;;;;5.00;93.90;;;;;;5035520;28;19919;-70
2021/04/17 08:17:15;;;;;;;;;;;5.20;93.70;;;;;;5034092;28;19999;-70
2021/04/17 08:19:40;;;;;;;;;;;5.50;93.20;;;;;;5035170;28;19914;-70
2021/04/17 08:22:06;;;;;;;;;;;5.70;92.00;;;;;;5028265;28;20329;-70
2021/04/17 08:24:34;;;;;;;;;;;5.50;91.80;;;;;;5035413;28;19916;-70
2021/04/17 08:27:01;;;;;;;;;;;5.80;92.40;;;;;;5034917;28;19913;-69
2021/04/17 08:29:46;;;;;;;;;;;6.20;91.30;;;;;;5034857;28;19956;-69
2021/04/17 08:32:30;;;;;;;;;;;6.60;89.20;;;;;;5034732;28;19959;-70
2021/04/17 08:35:00;;;;;;;;;;;7.00;88.10;;;;;;5034356;28;19920;-69
2021/04/17 08:37:26;;;;;;;;;;;7.00;87.20;;;;;;5029727;28;19920;-69
2021/04/17 08:39:54;;;;;;;;;;;6.70;86.50;;;;;;5032383;28;19966;-69
2021/04/17 08:42:43;;;;;;;;;;;7.00;87.30;;;;;;5023975;28;19963;-69
2021/04/17 08:45:13;;;;;;;;;;;7.30;84.90;;;;;;5035987;28;19920;-69
2021/04/17 08:48:05;;;;;;;;;;;7.30;84.40;;;;;;5037580;28;20309;-70
2021/04/17 08:50:40;;;;;;;;;;;7.20;84.70;;;;;;5037157;28;19913;-69
2021/04/17 08:53:16;;;;;;;;;;;7.70;84.40;;;;;;5037298;28;19925;-69
2021/04/17 08:55:41;;;;;;;;;;;8.00;83.80;;;;;;5038616;28;20003;-69
2021/04/17 08:58:12;;;;;;;;;;;8.10;82.50;;;;;;5038261;28;20106;-70
2021/04/17 09:00:50;;;;;;;;;;;8.30;81.60;;;;;;5037079;28;19921;-70
2021/04/17 09:03:35;;;;;;;;;;;8.30;81.80;;;;;;5018994;28;19914;-70
2021/04/17 09:06:01;;;;;;;;;;;8.20;81.20;;;;;;5029224;28;19917;-70
2021/04/17 09:08:26;;;;;;;;;;;9.10;81.30;;;;;;5036564;28;19936;-70
2021/04/17 09:10:53;;;;;;;;;;;9.90;77.60;;;;;;5027156;28;19920;-70
2021/04/17 09:13:20;;;;;;;;;;;9.30;77.30;;;;;;5037853;28;19917;-70
2021/04/17 09:15:52;;;;;;;;;;;9.80;76.70;;;;;;5038547;28;19920;-70
2021/04/17 09:18:30;;;;;;;;;;;10.10;75.10;;;;;;5037218;28;19917;-70
2021/04/17 09:20:56;;;;;;;;;;;9.70;76.20;;;;;;5037647;28;19913;-70
2021/04/17 09:23:39;;;;;;;;;;;9.40;78.00;;;;;;5033962;28;19917;-70
2021/04/17 09:26:07;;;;;;;;;;;9.40;77.40;;;;;;5037069;28;19962;-70
2021/04/17 09:28:36;;;;;;;;;;;10.10;75.70;;;;;;5038019;28;19914;-70
2021/04/17 09:31:02;;;;;;;;;;;10.20;73.30;;;;;;5036620;28;20028;-69
2021/04/17 09:33:29;;;;;;;;;;;10.50;72.80;;;;;;5036748;28;19922;-69
2021/04/17 09:35:54;;;;;;;;;;;10.00;72.60;;;;;;5037912;28;20261;-69
2021/04/17 09:38:22;;;;;;;;;;;9.50;73.60;;;;;;5036503;28;19917;-70
2021/04/17 09:40:49;;;;;;;;;;;9.20;75.30;;;;;;5034890;28;20246;-70
2021/04/17 09:43:20;;;;;;;;;;;9.10;74.50;;;;;;5030689;28;19959;-69
2021/04/17 09:45:49;;;;;;;;;;;9.30;74.40;;;;;;5037821;28;20084;-69
2021/04/17 09:48:15;;;;;;;;;;;9.20;73.80;;;;;;5036603;28;19920;-68
2021/04/17 09:50:40;;;;;;;;;;;8.90;74.60;;;;;;5036439;28;20004;-69
2021/04/17 09:53:12;;;;;;;;;;;8.80;75.20;;;;;;5035881;28;19921;-69
2021/04/17 09:55:58;;;;;;;;;;;8.90;75.10;;;;;;5037797;28;20375;-69
2021/04/17 09:58:25;;;;;;;;;;;8.80;74.90;;;;;;5036711;28;19925;-69
2021/04/17 10:00:51;;;;;;;;;;;8.50;75.00;;;;;;5034422;28;19924;-71
2021/04/17 10:03:29;;;;;;;;;;;8.30;76.10;;;;;;5037579;28;20276;-69
2021/04/17 10:05:55;;;;;;;;;;;8.50;75.70;;;;;;5032296;28;20332;-68
2021/04/17 10:08:33;;;;;;;;;;;8.30;76.80;;;;;;5036369;28;20000;-69
2021/04/17 10:10:59;;;;;;;;;;;8.60;76.30;;;;;;5057554;28;19917;-69
2021/04/17 10:13:44;;;;;;;;;;;9.40;74.80;;;;;;5039388;28;19924;-69
2021/04/17 10:16:10;;;;;;;;;;;10.00;73.50;;;;;;5037175;28;19913;-69
2021/04/17 10:18:37;;;;;;;;;;;11.50;70.40;;;;;;5036468;28;19917;-69
2021/04/17 10:21:03;;;;;;;;;;;11.20;70.00;;;;;;5036731;28;19914;-68
2021/04/17 10:23:29;;;;;;;;;;;12.40;67.30;;;;;;5035977;28;19924;-68
2021/04/17 10:26:01;;;;;;;;;;;13.30;66.40;;;;;;5037101;28;19917;-69
2021/04/17 10:28:27;;;;;;;;;;;13.40;64.00;;;;;;5035698;28;20022;-68
2021/04/17 10:30:55;;;;;;;;;;;12.90;64.50;;;;;;5036119;28;19948;-68
2021/04/17 10:33:28;;;;;;;;;;;12.20;64.90;;;;;;5015608;28;20002;-68
2021/04/17 10:35:55;;;;;;;;;;;10.80;67.40;;;;;;5034009;28;20294;-68
2021/04/17 10:38:21;;;;;;;;;;;10.30;69.20;;;;;;5034914;28;20187;-71
2021/04/17 10:40:47;;;;;;;;;;;10.30;69.40;;;;;;5036276;28;19913;-69
2021/04/17 10:43:18;;;;;;;;;;;10.20;68.60;;;;;;5036772;28;20080;-69
2021/04/17 10:45:44;;;;;;;;;;;9.30;68.90;;;;;;5036270;28;19921;-69
2021/04/17 10:48:13;;;;;;;;;;;8.40;70.40;;;;;;5036136;28;20342;-68
2021/04/17 10:50:40;;;;;;;;;;;8.10;72.50;;;;;;5036387;28;19955;-68
2021/04/17 10:53:16;;;;;;;;;;;8.00;71.70;;;;;;5016244;28;19922;-68
2021/04/17 10:55:41;;;;;;;;;;;8.10;71.70;;;;;;5021188;28;19924;-68
2021/04/17 10:58:27;;;;;;;;;;;8.50;72.30;;;;;;5034478;28;19921;-68
2021/04/17 11:01:05;;;;;;;;;;;9.10;69.70;;;;;;5023329;28;20000;-71
2021/04/17 11:03:44;;;;;;;;;;;9.40;69.50;;;;;;5035381;28;19913;-70
2021/04/17 11:06:14;;;;;;;;;;;10.10;68.40;;;;;;5029470;28;19998;-70
2021/04/17 11:08:40;;;;;;;;;;;11.00;65.60;;;;;;5035031;28;19948;-70
2021/04/17 11:11:09;;;;;;;;;;;11.80;63.80;;;;;;5034796;28;19913;-70
2021/04/17 11:13:36;;;;;;;;;;;11.60;62.60;;;;;;5028564;28;19919;-70
2021/04/17 11:16:04;;;;;;;;;;;11.80;62.70;;;;;;5028720;28;20256;-70
2021/04/17 11:18:36;;;;;;;;;;;11.60;62.50;;;;;;5035044;28;19927;-70
2021/04/17 11:21:02;;;;;;;;;;;10.80;64.70;;;;;;5036374;28;20266;-69
2021/04/17 11:23:35;;;;;;;;;;;10.30;65.50;;;;;;5033708;28;19967;-70
2021/04/17 11:26:02;;;;;;;;;;;9.70;66.50;;;;;;5035514;28;19919;-70
2021/04/17 11:28:28;;;;;;;;;;;9.40;68.20;;;;;;5026467;28;20673;-70
2021/04/17 11:30:54;;;;;;;;;;;10.00;68.00;;;;;;5027334;28;19996;-70
2021/04/17 11:33:19;;;;;;;;;;;10.60;66.40;;;;;;5035432;28;19928;-69
2021/04/17 11:35:45;;;;;;;;;;;11.50;64.10;;;;;;5034503;28;19917;-71
2021/04/17 11:38:10;;;;;;;;;;;12.40;64.20;;;;;;5032618;28;19940;-69
2021/04/17 11:40:36;;;;;;;;;;;12.00;61.80;;;;;;5035880;28;19917;-70
2021/04/17 11:43:02;;;;;;;;;;;11.10;62.40;;;;;;5032991;28;19945;-68
2021/04/17 11:45:27;;;;;;;;;;;10.70;63.40;;;;;;5037398;28;20258;-67
2021/04/17 11:47:53;;;;;;;;;;;10.50;64.90;;;;;;5028785;28;19913;-69
2021/04/17 11:50:21;;;;;;;;;;;10.50;63.80;;;;;;5035579;28;20310;-68
2021/04/17 11:52:47;;;;;;;;;;;10.00;63.60;;;;;;5032146;28;19924;-66
2021/04/17 11:55:13;;;;;;;;;;;9.80;64.70;;;;;;5033458;28;19909;-68
2021/04/17 11:57:39;;;;;;;;;;;10.20;63.60;;;;;;5015348;28;19917;-67
2021/04/17 12:00:05;;;;;;;;;;;11.00;62.20;;;;;;5017012;28;20083;-67
2021/04/17 12:02:31;;;;;;;;;;;12.40;60.70;;;;;;5023034;28;20377;-67
2021/04/17 12:04:56;;;;;;;;;;;13.80;58.00;;;;;;5033219;28;19921;-69
2021/04/17 12:07:22;;;;;;;;;;;14.30;55.90;;;;;;5032751;28;20294;-69
2021/04/17 12:09:48;;;;;;;;;;;13.90;56.00;;;;;;5029929;28;19928;-68
2021/04/17 12:12:13;;;;;;;;;;;13.40;57.80;;;;;;5024757;28;19909;-68
2021/04/17 12:14:40;;;;;;;;;;;12.10;60.80;;;;;;5014739;28;19996;-68
2021/04/17 12:17:05;;;;;;;;;;;11.30;62.00;;;;;;5020134;28;20030;-68
2021/04/17 12:19:32;;;;;;;;;;;10.50;64.30;;;;;;5034498;28;19980;-69
2021/04/17 12:21:58;;;;;;;;;;;10.00;65.90;;;;;;5035508;28;19917;-69
2021/04/17 12:24:24;;;;;;;;;;;9.50;67.30;;;;;;5038274;28;19935;-69
2021/04/17 12:26:49;;;;;;;;;;;9.30;68.10;;;;;;5039126;28;20381;-69
2021/04/17 12:29:15;;;;;;;;;;;9.40;67.90;;;;;;5039271;28;19917;-69
2021/04/17 12:31:40;;;;;;;;;;;9.40;67.20;;;;;;5029920;28;19919;-69
2021/04/17 12:34:06;;;;;;;;;;;9.50;67.50;;;;;;5035537;28;20316;-69
2021/04/17 12:36:31;;;;;;;;;;;9.50;67.80;;;;;;5026797;28;19914;-69
2021/04/17 12:38:57;;;;;;;;;;;9.70;67.30;;;;;;5018077;28;20331;-69
2021/04/17 12:41:24;;;;;;;;;;;9.60;67.20;;;;;;5029963;28;19914;-69
2021/04/17 12:43:50;;;;;;;;;;;9.60;66.30;;;;;;5038579;28;19913;-69
2021/04/17 12:46:15;;;;;;;;;;;9.50;66.60;;;;;;5031524;28;19966;-69
2021/04/17 12:48:41;;;;;;;;;;;9.20;67.10;;;;;;5039092;28;19920;-68
2021/04/17 12:51:06;;;;;;;;;;;9.30;67.00;;;;;;5036848;28;19913;-69
2021/04/17 12:53:32;;;;;;;;;;;9.30;67.60;;;;;;5032064;28;19929;-67
2021/04/17 12:55:58;;;;;;;;;;;9.60;66.50;;;;;;5024732;28;19917;-68
2021/04/17 12:58:23;;;;;;;;;;;9.90;66.80;;;;;;5037032;28;20329;-67
2021/04/17 13:00:49;;;;;;;;;;;9.60;66.60;;;;;;5051529;28;19913;-69
2021/04/17 13:03:15;;;;;;;;;;;9.80;66.80;;;;;;5033014;28;19916;-70
2021/04/17 13:05:41;;;;;;;;;;;10.10;65.80;;;;;;5035358;28;19945;-68
2021/04/17 13:08:07;;;;;;;;;;;9.80;66.90;;;;;;5031771;28;20010;-69
2021/04/17 13:10:33;;;;;;;;;;;9.70;67.20;;;;;;5036870;28;19924;-68
2021/04/17 13:12:59;;;;;;;;;;;9.40;67.30;;;;;;5037126;28;19909;-68
2021/04/17 13:15:24;;;;;;;;;;;9.20;67.80;;;;;;5035774;28;19913;-68
2021/04/17 13:17:51;;;;;;;;;;;8.90;68.00;;;;;;5036473;28;20039;-69
2021/04/17 13:20:17;;;;;;;;;;;8.60;68.90;;;;;;5036187;28;19963;-70
2021/04/17 13:22:42;;;;;;;;;;;8.90;68.90;;;;;;5033507;28;20253;-69
2021/04/17 13:25:08;;;;;;;;;;;9.00;68.40;;;;;;5018491;28;19938;-69
2021/04/17 13:27:34;;;;;;;;;;;9.20;67.30;;;;;;5032367;28;19917;-69
2021/04/17 13:30:00;;;;;;;;;;;9.30;66.90;;;;;;5036367;28;19963;-70
2021/04/17 13:32:25;;;;;;;;;;;9.30;68.20;;;;;;5035626;28;19913;-69
2021/04/17 13:34:53;;;;;;;;;;;9.50;68.20;;;;;;5035766;28;19920;-68
2021/04/17 13:37:18;;;;;;;;;;;9.20;68.30;;;;;;5035080;28;20055;-69
2021/04/17 13:39:44;;;;;;;;;;;9.30;69.20;;;;;;5036719;28;20366;-68
2021/04/17 13:42:11;;;;;;;;;;;9.50;67.80;;;;;;5037521;28;19917;-67
2021/04/17 13:44:36;;;;;;;;;;;9.80;67.40;;;;;;5036560;28;19913;-67
2021/04/17 13:47:02;;;;;;;;;;;9.70;67.60;;;;;;5037246;28;21522;-67
2021/04/17 13:49:28;;;;;;;;;;;9.90;67.10;;;;;;5036491;28;19952;-67
2021/04/17 13:51:54;;;;;;;;;;;10.30;65.80;;;;;;5036081;28;19933;-68
2021/04/17 13:54:20;;;;;;;;;;;10.00;66.30;;;;;;5035581;28;19921;-69
2021/04/17 13:56:45;;;;;;;;;;;9.80;66.70;;;;;;5036964;28;19917;-68
2021/04/17 13:59:11;;;;;;;;;;;9.90;66.80;;;;;;5037384;28;19921;-68
2021/04/17 14:01:37;;;;;;;;;;;9.30;66.60;;;;;;5036851;28;20004;-67
2021/04/17 14:04:02;;;;;;;;;;;9.20;68.00;;;;;;5037274;28;19967;-68
2021/04/17 14:06:28;;;;;;;;;;;8.90;69.20;;;;;;5037099;28;19910;-69
2021/04/17 14:08:53;;;;;;;;;;;8.70;69.40;;;;;;5024440;28;19965;-67
2021/04/17 14:11:19;;;;;;;;;;;8.70;69.40;;;;;;5036735;28;19959;-68
2021/04/17 14:13:44;;;;;;;;;;;8.70;69.10;;;;;;5036982;28;19917;-68
2021/04/17 14:16:10;;;;;;;;;;;8.50;69.40;;;;;;5037132;28;19993;-68
2021/04/17 14:18:36;;;;;;;;;;;8.40;69.70;;;;;;5036809;28;19917;-69
2021/04/17 14:21:01;;;;;;;;;;;8.40;70.50;;;;;;5035206;28;19920;-68
2021/04/17 14:23:27;;;;;;;;;;;8.30;70.70;;;;;;5034594;28;19957;-67